createdAt,value
2022-12-09T00:03:07.671Z,21.17
2022-12-09T00:06:35.682Z,23.50
2022-12-09T00:10:00.350Z,23.83
2022-12-09T00:13:24.123Z,22.97
2022-12-09T00:16:48.375Z,25.50
2022-12-09T00:20:16.038Z,22.80
2022-12-09T00:23:40.327Z,24.77
2022-12-09T00:27:04.334Z,23.53
2022-12-09T00:30:28.867Z,21.97
2022-12-09T00:33:54.320Z,21.60
2022-12-09T00:37:19.737Z,23.77
2022-12-09T00:40:45.384Z,24.20
2022-12-09T00:44:09.330Z,24.47
2022-12-09T00:47:36.831Z,22.73
2022-12-09T00:51:02.158Z,24.67
2022-12-09T00:54:27.617Z,23.20
2022-12-09T00:57:52.141Z,25.50
2022-12-09T01:01:16.417Z,25.60
2022-12-09T01:04:41.383Z,21.70
2022-12-09T01:08:05.776Z,21.63
2022-12-09T01:11:33.932Z,24.30
2022-12-09T01:14:58.392Z,23.30
2022-12-09T01:18:22.196Z,19.17
2022-12-09T01:21:54.896Z,22.63
2022-12-09T01:25:19.490Z,21.60
2022-12-09T01:28:44.497Z,21.67
2022-12-09T01:32:09.614Z,20.70
2022-12-09T01:35:37.543Z,19.43
2022-12-09T01:39:02.218Z,17.03
2022-12-09T01:42:27.701Z,17.67
2022-12-09T01:45:55.397Z,19.13
2022-12-09T01:49:24.733Z,17.67
2022-12-09T01:52:50.101Z,16.03
2022-12-09T01:56:18.685Z,17.73
2022-12-09T01:59:44.208Z,16.50
2022-12-09T02:03:09.808Z,16.50
2022-12-09T02:06:36.453Z,15.17
2022-12-09T02:10:02.799Z,16.33
2022-12-09T02:13:45.065Z,14.60
2022-12-09T02:17:23.484Z,14.00
2022-12-09T02:20:57.498Z,15.30
2022-12-09T02:24:29.484Z,17.43
2022-12-09T02:28:11.974Z,14.90
2022-12-09T02:31:54.399Z,16.67
2022-12-09T02:35:28.637Z,14.60
2022-12-09T02:38:55.363Z,13.93
2022-12-09T02:42:22.884Z,12.40
2022-12-09T02:45:48.380Z,13.20
2022-12-09T02:49:15.906Z,14.17
2022-12-09T02:52:43.393Z,12.90
2022-12-09T02:56:09.049Z,9.30
2022-12-09T02:59:32.969Z,11.67
2022-12-09T03:03:02.439Z,13.63
2022-12-09T03:06:32.159Z,11.53
2022-12-09T03:10:04.953Z,10.97
2022-12-09T03:13:41.748Z,12.53
2022-12-09T03:17:13.005Z,12.47
2022-12-09T03:20:42.288Z,8.70
2022-12-09T03:24:11.535Z,10.80
2022-12-09T03:27:44.201Z,10.30
2022-12-09T03:31:14.342Z,9.93
2022-12-09T03:34:41.892Z,10.53
2022-12-09T03:38:09.664Z,10.77
2022-12-09T03:41:34.901Z,10.70
2022-12-09T03:45:04.146Z,8.70
2022-12-09T03:48:30.910Z,8.33
2022-12-09T03:52:02.379Z,9.83
2022-12-09T03:55:37.478Z,7.63
2022-12-09T03:59:06.598Z,6.40
2022-12-09T04:02:33.226Z,7.50
2022-12-09T04:05:59.871Z,6.53
2022-12-09T04:09:30.142Z,6.63
2022-12-09T04:12:54.481Z,6.30
2022-12-09T04:16:18.696Z,5.00
2022-12-09T04:19:45.075Z,4.30
2022-12-09T04:23:09.264Z,4.80
2022-12-09T04:26:33.661Z,5.63
2022-12-09T04:29:57.557Z,6.50
2022-12-09T04:33:21.705Z,5.43
2022-12-09T04:36:49.327Z,6.90
2022-12-09T04:40:21.317Z,7.53
2022-12-09T04:43:48.894Z,8.37
2022-12-09T04:47:13.502Z,7.40
2022-12-09T04:50:37.684Z,8.13
2022-12-09T04:54:05.085Z,8.40
2022-12-09T04:57:30.870Z,8.53
2022-12-09T05:00:54.672Z,6.50
2022-12-09T05:04:19.718Z,7.70
2022-12-09T05:07:45.154Z,7.13
2022-12-09T05:11:11.350Z,8.20
2022-12-09T05:14:35.663Z,5.87
2022-12-09T05:18:02.412Z,7.70
2022-12-09T05:21:26.543Z,8.47
2022-12-09T05:24:50.846Z,9.00
2022-12-09T05:28:17.241Z,8.23
2022-12-09T05:31:41.144Z,8.77
2022-12-09T05:35:06.379Z,9.57
2022-12-09T05:38:31.311Z,9.00
2022-12-09T05:41:55.518Z,9.60
2022-12-09T05:45:20.829Z,8.53
2022-12-09T05:48:45.392Z,9.63
2022-12-09T05:52:12.247Z,10.70
2022-12-09T05:55:36.645Z,9.03
2022-12-09T05:59:00.874Z,8.90
2022-12-09T06:02:27.074Z,10.70
2022-12-09T06:05:52.679Z,9.60
2022-12-09T06:09:17.832Z,8.67
2022-12-09T06:12:42.545Z,9.90
2022-12-09T06:16:07.868Z,8.00
2022-12-09T06:19:34.280Z,9.17
2022-12-09T06:22:58.431Z,10.93
2022-12-09T06:26:24.595Z,10.73
2022-12-09T06:29:48.454Z,10.73
2022-12-09T06:33:36.866Z,13.03
2022-12-09T06:36:57.302Z,11.20
2022-12-09T06:40:22.121Z,12.00
2022-12-09T06:43:46.143Z,8.50
2022-12-09T06:47:10.514Z,10.80
2022-12-09T06:50:34.366Z,12.27
2022-12-09T06:53:59.842Z,11.50
2022-12-09T06:57:23.466Z,11.03
2022-12-09T07:00:47.370Z,12.30
2022-12-09T07:04:14.633Z,13.83
2022-12-09T07:07:38.780Z,11.53
2022-12-09T07:11:03.945Z,12.37
2022-12-09T07:14:28.285Z,11.73
2022-12-09T07:17:52.042Z,12.53
2022-12-09T07:21:19.479Z,13.80
2022-12-09T07:24:43.931Z,12.83
2022-12-09T07:28:09.119Z,13.60
2022-12-09T07:31:33.800Z,13.37
2022-12-09T07:34:59.407Z,13.10
2022-12-09T07:38:23.725Z,13.03
2022-12-09T07:41:52.072Z,12.90
2022-12-09T07:45:17.827Z,12.27
2022-12-09T07:48:42.549Z,13.60
2022-12-09T07:52:07.083Z,11.97
2022-12-09T07:55:31.281Z,13.67
2022-12-09T07:58:55.465Z,14.10
2022-12-09T08:02:20.852Z,13.10
2022-12-09T08:05:48.848Z,13.57
2022-12-09T08:09:14.858Z,13.50
2022-12-09T08:12:38.797Z,13.17
2022-12-09T08:16:03.957Z,16.10
2022-12-09T08:19:29.606Z,16.07
2022-12-09T08:22:53.660Z,18.33
2022-12-09T08:26:19.861Z,13.97
2022-12-09T08:29:44.267Z,14.77
2022-12-09T08:33:08.087Z,13.63
2022-12-09T08:36:33.820Z,16.87
2022-12-09T08:39:57.839Z,15.43
2022-12-09T08:43:22.106Z,18.27
2022-12-09T08:46:49.455Z,14.83
2022-12-09T08:50:16.351Z,15.50
2022-12-09T08:53:43.623Z,14.37
2022-12-09T08:57:11.834Z,16.70
2022-12-09T09:00:36.405Z,15.93
2022-12-09T09:04:07.599Z,13.90
2022-12-09T09:07:37.231Z,16.57
2022-12-09T09:11:10.480Z,14.97
2022-12-09T09:14:35.790Z,13.20
2022-12-09T09:18:04.848Z,16.13
2022-12-09T09:21:30.509Z,16.90
2022-12-09T09:24:56.258Z,16.90
2022-12-09T09:28:27.353Z,16.80
2022-12-09T09:31:56.481Z,17.90
2022-12-09T09:35:21.482Z,17.47
2022-12-09T09:38:45.891Z,15.87
2022-12-09T09:42:17.168Z,13.83
2022-12-09T09:45:42.654Z,15.27
2022-12-09T09:49:14.615Z,14.40
2022-12-09T09:52:42.103Z,12.00
2022-12-09T09:56:16.440Z,13.60
2022-12-09T09:59:50.053Z,13.03
2022-12-09T10:03:21.947Z,14.30
2022-12-09T10:06:53.239Z,14.80
2022-12-09T10:10:28.543Z,11.23
2022-12-09T10:13:57.873Z,14.77
2022-12-09T10:17:29.119Z,11.10
2022-12-09T10:20:54.759Z,13.90
2022-12-09T10:24:24.206Z,16.20
2022-12-09T10:27:53.407Z,14.60
2022-12-09T10:31:17.315Z,14.23
2022-12-09T10:34:41.124Z,15.13
2022-12-09T10:38:11.958Z,16.60
2022-12-09T10:42:01.405Z,13.77
2022-12-09T10:45:32.117Z,15.07
2022-12-09T10:49:55.403Z,13.77
2022-12-09T10:58:30.360Z,12.97
2022-12-09T11:01:56.695Z,14.03
2022-12-09T11:05:27.543Z,13.10
2022-12-09T11:08:54.574Z,14.40
2022-12-09T11:12:21.986Z,15.57
2022-12-09T11:15:54.399Z,13.97
2022-12-09T11:19:18.531Z,13.83
2022-12-09T11:22:44.135Z,12.87
2022-12-09T11:26:23.848Z,14.70
2022-12-09T11:29:47.560Z,13.07
2022-12-09T11:33:27.195Z,14.70
2022-12-09T11:36:53.563Z,14.57
2022-12-09T11:40:19.330Z,16.20
2022-12-09T11:43:46.032Z,15.30
2022-12-09T11:47:13.317Z,12.97
2022-12-09T11:50:42.597Z,14.07
2022-12-09T11:54:13.721Z,15.70
2022-12-09T11:57:44.053Z,14.20
2022-12-09T12:01:12.638Z,16.53
2022-12-09T12:04:41.103Z,13.83
2022-12-09T12:08:17.564Z,13.70
2022-12-09T12:11:47.647Z,12.73
2022-12-09T12:15:16.093Z,13.23
2022-12-09T12:18:45.683Z,13.40
2022-12-09T12:22:28.336Z,14.80
2022-12-09T12:26:00.576Z,14.10
2022-12-09T12:29:35.667Z,16.10
2022-12-09T12:33:59.700Z,17.00
2022-12-09T12:37:14.114Z,15.33
2022-12-09T12:40:44.343Z,14.53
2022-12-09T12:44:44.253Z,15.90
2022-12-09T12:48:16.169Z,16.03
2022-12-09T12:51:52.650Z,14.77
2022-12-09T12:55:37.054Z,13.70
2022-12-09T12:59:08.444Z,16.60
2022-12-09T13:02:43.155Z,16.03
2022-12-09T13:06:12.252Z,14.50
2022-12-09T13:09:42.472Z,12.97
2022-12-09T13:13:13.320Z,14.93
2022-12-09T13:16:41.132Z,16.37
2022-12-09T13:20:08.268Z,15.50
2022-12-09T13:23:49.565Z,17.17
2022-12-09T13:27:19.046Z,18.13
2022-12-09T13:30:52.660Z,14.70
2022-12-09T13:34:25.791Z,17.50
2022-12-09T13:38:01.763Z,16.70
2022-12-09T13:41:53.217Z,15.33
2022-12-09T13:45:21.699Z,16.63
2022-12-09T13:48:47.938Z,14.03
2022-12-09T13:52:11.634Z,17.80
2022-12-09T13:55:48.114Z,16.40
2022-12-09T13:59:39.246Z,18.17
2022-12-09T14:03:08.029Z,17.07
2022-12-09T14:06:36.690Z,17.13
2022-12-09T14:10:02.202Z,18.47
2022-12-09T14:13:33.331Z,19.37
2022-12-09T14:16:58.137Z,17.90
2022-12-09T14:20:24.797Z,17.57
2022-12-09T14:24:21.441Z,18.93
2022-12-09T14:28:26.843Z,20.10
2022-12-09T14:32:01.220Z,21.23
2022-12-09T14:35:31.508Z,20.50
2022-12-09T14:39:23.113Z,19.00
2022-12-09T14:42:52.182Z,19.70
2022-12-09T14:46:25.240Z,17.40
2022-12-09T14:49:50.770Z,18.60
2022-12-09T14:53:23.200Z,17.63
2022-12-09T14:56:49.471Z,17.90
2022-12-09T15:00:32.384Z,20.83
2022-12-09T15:03:57.913Z,20.87
2022-12-09T15:07:26.029Z,20.83
2022-12-09T15:10:49.861Z,19.93
2022-12-09T15:14:30.196Z,20.60
2022-12-09T15:17:58.150Z,19.63
2022-12-09T15:21:29.678Z,19.60
2022-12-09T15:24:55.746Z,17.87
2022-12-09T15:28:26.113Z,19.10
2022-12-09T15:31:53.496Z,19.53
2022-12-09T15:35:30.464Z,19.77
2022-12-09T15:38:58.367Z,19.80
2022-12-09T15:42:27.371Z,18.70
2022-12-09T15:45:51.275Z,18.77
2022-12-09T15:49:18.326Z,19.30
2022-12-09T15:52:47.107Z,20.50
2022-12-09T15:56:15.593Z,19.13
2022-12-09T15:59:43.842Z,19.07
2022-12-09T16:03:08.628Z,18.60
2022-12-09T16:06:36.450Z,19.93
2022-12-09T16:10:07.965Z,26.70
2022-12-09T16:13:32.643Z,20.83
2022-12-09T16:17:01.280Z,22.93
2022-12-09T16:20:34.879Z,26.07
2022-12-09T16:24:08.020Z,30.20
2022-12-09T16:27:37.179Z,24.40
2022-12-09T16:31:03.275Z,21.13
2022-12-09T16:34:28.909Z,26.10
2022-12-09T16:38:18.221Z,25.90
2022-12-09T16:41:58.582Z,22.33
2022-12-09T16:45:25.130Z,22.20
2022-12-09T16:48:50.064Z,22.13
2022-12-09T16:52:20.160Z,24.37
2022-12-09T16:55:51.227Z,45.97
2022-12-09T16:59:14.928Z,26.00
2022-12-09T17:02:45.461Z,22.47
2022-12-09T17:06:14.592Z,25.00
2022-12-09T17:09:39.629Z,22.77
2022-12-09T17:13:03.580Z,23.23
2022-12-09T17:16:27.512Z,21.20
2022-12-09T17:19:51.910Z,22.80
2022-12-09T17:23:15.548Z,23.10
2022-12-09T17:26:40.629Z,22.40
2022-12-09T17:30:04.927Z,26.00
2022-12-09T17:33:29.837Z,24.63
2022-12-09T17:36:54.881Z,20.53
2022-12-09T17:40:18.723Z,20.47
2022-12-09T17:43:44.190Z,22.20
2022-12-09T17:47:07.906Z,27.47
2022-12-09T17:50:32.989Z,23.13
2022-12-09T17:53:56.817Z,21.43
2022-12-09T17:57:20.637Z,24.00
2022-12-09T18:00:47.665Z,22.37
2022-12-09T18:04:11.821Z,25.10
2022-12-09T18:07:35.625Z,23.07
2022-12-09T18:11:03.940Z,23.57
2022-12-09T18:14:27.672Z,24.07
2022-12-09T18:17:52.597Z,25.13
2022-12-09T18:21:16.704Z,25.60
2022-12-09T18:24:40.504Z,24.17
2022-12-09T18:28:04.153Z,23.10
2022-12-09T18:31:28.684Z,22.13
2022-12-09T18:34:54.941Z,23.40
2022-12-09T18:38:19.057Z,24.20
2022-12-09T18:41:44.246Z,21.70
2022-12-09T18:45:10.535Z,24.03
2022-12-09T18:48:35.818Z,27.10
2022-12-09T18:52:00.775Z,26.03
2022-12-09T18:55:24.405Z,23.37
2022-12-09T18:59:06.039Z,27.43
2022-12-09T19:02:31.117Z,27.80
2022-12-09T19:05:54.768Z,27.20
2022-12-09T19:09:21.629Z,26.90
2022-12-09T19:12:47.317Z,26.43
2022-12-09T19:16:11.983Z,26.67
2022-12-09T19:19:35.634Z,25.60
2022-12-09T19:23:00.495Z,23.13
2022-12-09T19:26:28.983Z,23.13
2022-12-09T19:29:52.595Z,30.50
2022-12-09T19:33:16.203Z,30.40
2022-12-09T19:36:40.205Z,31.33
2022-12-09T19:40:04.079Z,30.73
2022-12-09T19:43:29.288Z,32.77
2022-12-09T19:46:52.980Z,30.40
2022-12-09T19:50:16.658Z,30.50
2022-12-09T19:53:40.874Z,29.00
2022-12-09T19:57:05.534Z,34.63
2022-12-09T20:00:30.854Z,32.67
2022-12-09T20:03:58.428Z,34.83
2022-12-09T20:07:22.401Z,32.80
2022-12-09T20:10:47.502Z,29.30
2022-12-09T20:14:13.907Z,32.10
2022-12-09T20:17:38.947Z,28.13
2022-12-09T20:21:04.535Z,29.70
2022-12-09T20:24:33.363Z,29.33
2022-12-09T20:27:58.038Z,29.17
2022-12-09T20:31:25.772Z,28.63
2022-12-09T20:34:57.875Z,28.57
2022-12-09T20:38:22.518Z,29.73
2022-12-09T20:41:46.979Z,30.50
2022-12-09T20:45:15.131Z,32.03
2022-12-09T20:48:40.872Z,30.53
2022-12-09T20:52:10.226Z,31.30
2022-12-09T20:55:34.908Z,28.37
2022-12-09T20:59:04.107Z,29.83
2022-12-09T21:02:41.722Z,26.73
2022-12-09T21:06:07.961Z,28.53
2022-12-09T21:09:36.213Z,28.20
2022-12-09T21:13:00.797Z,28.00
2022-12-09T21:16:27.009Z,27.80
2022-12-09T21:19:53.922Z,25.73
2022-12-09T21:23:36.322Z,25.20
2022-12-09T21:27:02.971Z,26.23
2022-12-09T21:30:34.898Z,27.63
2022-12-09T21:34:01.581Z,27.13
2022-12-09T21:37:29.721Z,28.00
2022-12-09T21:40:54.624Z,27.23
2022-12-09T21:44:22.154Z,25.87
2022-12-09T21:47:45.767Z,28.67
2022-12-09T21:51:13.372Z,28.93
2022-12-09T21:54:38.086Z,26.90
2022-12-09T21:58:02.616Z,25.37
2022-12-09T22:01:30.084Z,29.00
2022-12-09T22:04:54.711Z,27.37
2022-12-09T22:08:18.864Z,28.40
2022-12-09T22:11:42.617Z,28.27
2022-12-09T22:15:10.545Z,29.60
2022-12-09T22:18:36.412Z,33.03
2022-12-09T22:22:04.604Z,30.30
2022-12-09T22:25:31.096Z,29.80
2022-12-09T22:28:56.087Z,29.10
2022-12-09T22:32:19.733Z,27.83
2022-12-09T22:35:45.260Z,29.70
2022-12-09T22:39:12.641Z,29.37
2022-12-09T22:42:36.276Z,32.67
2022-12-09T22:46:05.699Z,27.53
2022-12-09T22:49:31.536Z,27.93
2022-12-09T22:53:03.916Z,28.70
2022-12-09T22:56:29.137Z,29.93
2022-12-09T22:59:53.610Z,32.37
2022-12-09T23:03:18.101Z,31.33
2022-12-09T23:06:43.441Z,33.03
2022-12-09T23:10:12.740Z,30.47
2022-12-09T23:13:40.963Z,33.70
2022-12-09T23:17:05.709Z,33.17
2022-12-09T23:20:30.230Z,32.00
2022-12-09T23:23:55.935Z,31.67
2022-12-09T23:27:23.441Z,31.43
2022-12-09T23:30:47.655Z,29.97
2022-12-09T23:34:14.410Z,30.57
2022-12-09T23:37:38.673Z,31.57
2022-12-09T23:41:02.703Z,31.47
2022-12-09T23:44:28.036Z,30.23
2022-12-09T23:47:51.868Z,28.90
2022-12-09T23:51:17.503Z,27.93
2022-12-09T23:54:41.337Z,28.30
2022-12-09T23:58:05.696Z,28.23
